createdAt,value
2023-01-17T00:00:56.908Z,9.90
2023-01-17T00:03:27.947Z,12.82
2023-01-17T00:06:16.834Z,13.55
2023-01-17T00:09:05.512Z,10.88
2023-01-17T00:11:35.715Z,14.32
2023-01-17T00:14:05.951Z,12.38
2023-01-17T00:16:36.170Z,16.33
2023-01-17T00:19:24.812Z,14.57
2023-01-17T00:22:13.602Z,14.35
2023-01-17T00:25:02.182Z,14.85
2023-01-17T00:27:32.194Z,18.40
2023-01-17T00:30:02.244Z,12.57
2023-01-17T00:32:32.232Z,14.88
2023-01-17T00:35:02.299Z,16.55
2023-01-17T00:37:32.324Z,13.32
2023-01-17T00:40:02.573Z,15.25
2023-01-17T00:42:32.735Z,13.93
2023-01-17T00:45:21.857Z,18.45
2023-01-17T00:48:10.478Z,13.90
2023-01-17T00:50:58.950Z,8.88
2023-01-17T00:53:47.481Z,11.13
2023-01-17T00:56:36.230Z,15.57
2023-01-17T00:59:24.791Z,14.90
2023-01-17T01:02:13.448Z,13.63
2023-01-17T01:05:02.272Z,13.00
2023-01-17T01:07:51.038Z,11.10
2023-01-17T01:10:39.841Z,13.98
2023-01-17T01:13:28.522Z,14.63
2023-01-17T01:16:23.749Z,16.85
2023-01-17T01:19:12.276Z,10.93
2023-01-17T01:22:00.986Z,10.60
2023-01-17T01:24:50.061Z,13.68
2023-01-17T01:27:38.666Z,14.88
2023-01-17T01:30:28.075Z,11.27
2023-01-17T01:33:16.974Z,11.05
2023-01-17T01:35:47.089Z,15.48
2023-01-17T01:38:19.978Z,11.13
2023-01-17T01:40:53.711Z,11.70
2023-01-17T01:43:48.359Z,9.32
2023-01-17T01:46:19.483Z,8.93
2023-01-17T01:48:52.644Z,12.90
2023-01-17T01:51:28.124Z,11.55
2023-01-17T01:54:07.459Z,10.65
2023-01-17T01:56:39.451Z,10.45
2023-01-17T01:59:14.033Z,18.50
2023-01-17T02:01:44.239Z,14.88
2023-01-17T02:04:15.382Z,12.38
2023-01-17T02:06:51.811Z,10.85
2023-01-17T02:09:22.187Z,13.95
2023-01-17T02:11:53.130Z,14.93
2023-01-17T02:14:23.436Z,10.38
2023-01-17T02:17:12.044Z,16.17
2023-01-17T02:20:30.097Z,12.98
2023-01-17T02:23:18.866Z,12.57
2023-01-17T02:26:21.295Z,15.73
2023-01-17T02:29:11.031Z,10.95
2023-01-17T02:31:58.640Z,14.70
2023-01-17T02:34:57.725Z,10.40
2023-01-17T02:37:50.735Z,11.57
2023-01-17T02:40:27.258Z,8.90
2023-01-17T02:43:02.964Z,9.18
2023-01-17T02:45:33.088Z,9.00
2023-01-17T02:48:08.206Z,10.43
2023-01-17T02:50:56.521Z,7.38
2023-01-17T02:53:38.783Z,8.73
2023-01-17T02:56:34.713Z,11.25
2023-01-17T02:59:11.738Z,9.75
2023-01-17T03:02:06.859Z,7.18
2023-01-17T03:04:56.732Z,6.90
2023-01-17T03:07:29.466Z,9.05
2023-01-17T03:10:04.863Z,10.18
2023-01-17T03:12:38.907Z,7.43
2023-01-17T03:15:14.053Z,6.88
2023-01-17T03:17:50.712Z,6.43
2023-01-17T03:20:22.648Z,7.30
2023-01-17T03:22:53.010Z,9.48
2023-01-17T03:25:23.075Z,6.38
2023-01-17T03:27:53.204Z,7.72
2023-01-17T03:30:23.351Z,8.35
2023-01-17T03:32:53.546Z,8.38
2023-01-17T03:35:23.782Z,6.60
2023-01-17T03:37:53.929Z,7.57
2023-01-17T03:40:24.086Z,6.45
2023-01-17T03:42:54.223Z,7.60
2023-01-17T03:45:24.338Z,8.88
2023-01-17T03:47:56.914Z,7.68
2023-01-17T03:50:27.189Z,5.93
2023-01-17T03:52:57.654Z,6.95
2023-01-17T03:55:27.947Z,8.98
2023-01-17T03:57:58.089Z,8.35
2023-01-17T04:00:28.253Z,7.10
2023-01-17T04:02:58.466Z,8.32
2023-01-17T04:05:28.601Z,7.30
2023-01-17T04:07:58.702Z,8.35
2023-01-17T04:10:28.780Z,8.27
2023-01-17T04:12:58.960Z,8.35
2023-01-17T04:15:29.401Z,5.68
2023-01-17T04:17:59.969Z,7.10
2023-01-17T04:20:33.648Z,5.70
2023-01-17T04:23:04.722Z,5.75
2023-01-17T04:25:35.016Z,5.22
2023-01-17T04:28:05.410Z,5.38
2023-01-17T04:30:35.586Z,6.57
2023-01-17T04:33:05.777Z,6.75
2023-01-17T04:35:36.291Z,5.93
2023-01-17T04:38:06.434Z,7.18
2023-01-17T04:40:36.548Z,5.93
2023-01-17T04:43:06.667Z,6.40
2023-01-17T04:45:38.871Z,6.40
2023-01-17T04:48:12.746Z,5.05
2023-01-17T04:50:42.921Z,4.93
2023-01-17T04:53:13.084Z,5.30
2023-01-17T04:55:46.834Z,7.68
2023-01-17T04:58:17.001Z,5.53
2023-01-17T05:00:50.993Z,5.63
2023-01-17T05:03:23.134Z,5.72
2023-01-17T05:05:53.255Z,3.92
2023-01-17T05:08:23.413Z,6.13
2023-01-17T05:10:54.681Z,6.57
2023-01-17T05:13:24.804Z,6.25
2023-01-17T05:15:57.478Z,5.18
2023-01-17T05:18:27.727Z,7.45
2023-01-17T05:21:04.703Z,5.60
2023-01-17T05:23:34.871Z,5.63
2023-01-17T05:26:05.057Z,5.40
2023-01-17T05:28:35.903Z,3.20
2023-01-17T05:31:06.474Z,5.00
2023-01-17T05:33:37.199Z,5.13
2023-01-17T05:36:07.950Z,5.55
2023-01-17T05:38:38.036Z,6.15
2023-01-17T05:41:08.195Z,5.63
2023-01-17T05:43:38.668Z,6.43
2023-01-17T05:46:08.867Z,5.43
2023-01-17T05:48:39.055Z,8.40
2023-01-17T05:51:09.206Z,4.43
2023-01-17T05:53:39.378Z,4.90
2023-01-17T05:56:09.517Z,6.72
2023-01-17T05:58:40.244Z,5.43
2023-01-17T06:01:10.467Z,6.82
2023-01-17T06:03:40.657Z,6.10
2023-01-17T06:06:12.022Z,5.40
2023-01-17T06:08:42.136Z,7.47
2023-01-17T06:11:12.229Z,6.95
2023-01-17T06:13:42.393Z,4.88
2023-01-17T06:16:12.649Z,6.60
2023-01-17T06:18:43.034Z,6.40
2023-01-17T06:21:14.812Z,8.93
2023-01-17T06:23:55.364Z,14.73
2023-01-17T06:26:26.114Z,11.15
2023-01-17T06:28:56.181Z,9.10
2023-01-17T06:31:26.596Z,11.75
2023-01-17T06:33:56.743Z,11.73
2023-01-17T06:36:26.832Z,13.55
2023-01-17T06:38:57.699Z,11.13
2023-01-17T06:41:27.879Z,12.10
2023-01-17T06:43:58.124Z,10.57
2023-01-17T06:46:28.355Z,13.45
2023-01-17T06:48:58.473Z,10.50
2023-01-17T06:51:28.611Z,10.88
2023-01-17T06:53:58.783Z,17.50
2023-01-17T06:56:31.695Z,23.77
2023-01-17T06:59:01.764Z,12.88
2023-01-17T07:01:32.004Z,12.57
2023-01-17T07:04:03.761Z,12.65
2023-01-17T07:06:36.473Z,12.57
2023-01-17T07:09:06.669Z,16.00
2023-01-17T07:11:36.898Z,14.93
2023-01-17T07:14:14.669Z,20.25
2023-01-17T07:16:46.304Z,16.75
2023-01-17T07:19:16.520Z,14.40
2023-01-17T07:21:46.951Z,16.40
2023-01-17T07:24:17.150Z,13.77
2023-01-17T07:26:51.759Z,11.35
2023-01-17T07:29:22.012Z,12.70
2023-01-17T07:31:52.127Z,14.18
2023-01-17T07:34:22.346Z,14.82
2023-01-17T07:36:54.584Z,10.30
2023-01-17T07:39:24.799Z,16.35
2023-01-17T07:41:55.020Z,16.08
2023-01-17T07:44:25.156Z,18.60
2023-01-17T07:46:55.656Z,14.18
2023-01-17T07:49:25.839Z,18.45
2023-01-17T07:51:56.002Z,17.65
2023-01-17T07:54:26.247Z,13.27
2023-01-17T07:56:56.410Z,25.75
2023-01-17T07:59:26.610Z,21.58
2023-01-17T08:01:56.919Z,21.98
2023-01-17T08:04:27.799Z,23.67
2023-01-17T08:07:00.612Z,23.30
2023-01-17T08:09:31.070Z,19.48
2023-01-17T08:12:01.384Z,27.40
2023-01-17T08:14:31.603Z,27.63
2023-01-17T08:17:06.733Z,20.70
2023-01-17T08:19:37.031Z,24.38
2023-01-17T08:22:08.310Z,25.95
2023-01-17T08:24:38.789Z,21.15
2023-01-17T08:27:09.332Z,18.25
2023-01-17T08:29:42.934Z,22.05
2023-01-17T08:32:13.213Z,24.08
2023-01-17T08:34:43.428Z,24.40
2023-01-17T08:37:13.631Z,19.73
2023-01-17T08:39:43.882Z,25.92
2023-01-17T08:42:14.002Z,38.70
2023-01-17T08:44:44.307Z,32.60
2023-01-17T08:47:14.507Z,24.48
2023-01-17T08:49:44.684Z,27.17
2023-01-17T08:52:15.652Z,33.00
2023-01-17T08:54:45.740Z,20.42
2023-01-17T08:57:15.854Z,25.10
2023-01-17T08:59:46.057Z,29.55
2023-01-17T09:02:19.016Z,31.13
2023-01-17T09:04:50.229Z,28.45
2023-01-17T09:07:21.164Z,28.92
2023-01-17T09:09:52.824Z,25.67
2023-01-17T09:12:23.024Z,30.67
2023-01-17T09:14:53.201Z,25.10
2023-01-17T09:17:23.404Z,24.25
2023-01-17T09:19:53.476Z,33.60
2023-01-17T09:22:23.629Z,29.65
2023-01-17T09:24:53.717Z,29.80
2023-01-17T09:27:23.878Z,27.80
2023-01-17T09:29:53.941Z,26.10
2023-01-17T09:32:24.279Z,24.65
2023-01-17T09:34:54.379Z,26.92
2023-01-17T09:37:24.566Z,26.02
2023-01-17T09:39:54.606Z,27.48
2023-01-17T09:42:40.692Z,26.77
2023-01-17T09:45:18.287Z,20.60
2023-01-17T09:47:53.862Z,23.35
2023-01-17T09:50:52.988Z,21.17
2023-01-17T09:53:23.227Z,22.08
2023-01-17T09:56:09.397Z,19.92
2023-01-17T09:59:16.844Z,24.77
2023-01-17T10:01:51.772Z,17.60
2023-01-17T10:04:59.827Z,19.00
2023-01-17T10:08:11.773Z,24.42
2023-01-17T10:11:10.211Z,17.95
2023-01-17T10:13:52.903Z,20.90
2023-01-17T10:16:32.127Z,21.05
2023-01-17T10:19:12.147Z,20.48
2023-01-17T10:22:10.417Z,24.10
2023-01-17T10:25:13.261Z,17.27
2023-01-17T10:28:00.402Z,18.95
2023-01-17T10:30:35.140Z,20.83
2023-01-17T10:33:16.038Z,22.20
2023-01-17T10:36:04.144Z,16.65
2023-01-17T10:38:37.754Z,19.15
2023-01-17T10:41:30.979Z,19.92
2023-01-17T10:44:30.270Z,17.20
2023-01-17T10:47:12.500Z,25.55
2023-01-17T10:49:45.653Z,18.58
2023-01-17T10:52:46.462Z,20.05
2023-01-17T10:55:48.071Z,17.27
2023-01-17T10:58:18.296Z,20.10
2023-01-17T11:01:01.394Z,20.88
2023-01-17T11:03:32.290Z,21.15
2023-01-17T11:06:22.756Z,20.63
2023-01-17T11:08:56.920Z,20.90
2023-01-17T11:11:33.429Z,15.52
2023-01-17T11:14:07.991Z,20.65
2023-01-17T11:16:38.329Z,23.65
2023-01-17T11:19:16.605Z,21.83
2023-01-17T11:21:53.821Z,23.15
2023-01-17T11:24:32.134Z,17.88
2023-01-17T11:27:07.625Z,16.50
2023-01-17T11:29:39.830Z,17.92
2023-01-17T11:32:32.168Z,18.73
2023-01-17T11:35:15.628Z,20.13
2023-01-17T11:38:17.874Z,19.80
2023-01-17T11:40:54.092Z,15.73
2023-01-17T11:43:26.466Z,20.83
2023-01-17T11:46:20.649Z,20.02
2023-01-17T11:48:55.891Z,21.08
2023-01-17T11:51:31.082Z,20.55
2023-01-17T11:54:33.628Z,18.10
2023-01-17T11:57:04.172Z,20.20
2023-01-17T11:59:42.609Z,22.27
2023-01-17T12:03:03.901Z,23.05
2023-01-17T12:05:42.839Z,22.42
2023-01-17T12:08:19.913Z,17.73
2023-01-17T12:11:01.043Z,17.95
2023-01-17T12:14:01.223Z,28.88
2023-01-17T12:16:58.867Z,20.80
2023-01-17T12:19:47.092Z,18.90
2023-01-17T12:22:27.091Z,14.98
2023-01-17T12:25:16.087Z,15.45
2023-01-17T12:27:56.614Z,14.82
2023-01-17T12:30:47.678Z,15.15
2023-01-17T12:33:39.565Z,15.68
2023-01-17T12:36:19.442Z,16.58
2023-01-17T12:38:49.678Z,15.05
2023-01-17T12:41:26.586Z,15.55
2023-01-17T12:43:59.983Z,15.15
2023-01-17T12:46:49.234Z,21.08
2023-01-17T12:49:45.974Z,25.02
2023-01-17T12:52:48.629Z,16.60
2023-01-17T12:55:35.796Z,14.52
2023-01-17T12:58:12.330Z,12.98
2023-01-17T13:00:45.538Z,18.25
2023-01-17T13:03:31.788Z,17.88
2023-01-17T13:06:03.465Z,13.77
2023-01-17T13:08:42.766Z,20.88
2023-01-17T13:11:15.912Z,17.50
2023-01-17T13:13:47.458Z,17.85
2023-01-17T13:16:21.611Z,13.93
2023-01-17T13:18:52.601Z,15.07
2023-01-17T13:21:33.048Z,22.08
2023-01-17T13:24:09.215Z,20.98
2023-01-17T13:26:57.881Z,27.87
2023-01-17T13:29:58.957Z,19.83
2023-01-17T13:32:47.134Z,10.55
2023-01-17T13:35:44.992Z,20.02
2023-01-17T13:38:41.003Z,18.33
2023-01-17T13:41:28.803Z,15.88
2023-01-17T13:44:19.104Z,25.23
2023-01-17T13:46:54.932Z,23.55
2023-01-17T13:49:34.376Z,17.63
2023-01-17T13:52:19.431Z,11.85
2023-01-17T13:54:54.797Z,14.10
2023-01-17T13:57:33.018Z,12.30
2023-01-17T14:00:24.413Z,18.05
2023-01-17T14:02:55.593Z,18.50
2023-01-17T14:05:51.176Z,17.33
2023-01-17T14:08:22.140Z,16.05
2023-01-17T14:11:08.446Z,16.83
2023-01-17T14:13:40.293Z,18.48
2023-01-17T14:16:22.492Z,17.05
2023-01-17T14:18:54.110Z,18.23
2023-01-17T14:21:27.613Z,19.50
2023-01-17T14:24:13.269Z,16.38
2023-01-17T14:26:51.797Z,16.95
2023-01-17T14:29:46.565Z,21.27
2023-01-17T14:32:20.344Z,16.70
2023-01-17T14:34:52.383Z,15.82
2023-01-17T14:37:29.561Z,17.38
2023-01-17T14:40:00.866Z,15.60
2023-01-17T14:42:33.285Z,17.70
2023-01-17T14:45:09.139Z,14.13
2023-01-17T14:47:46.037Z,14.93
2023-01-17T14:50:23.084Z,12.68
2023-01-17T14:55:47.732Z,19.75
2023-01-17T14:58:18.055Z,21.20
2023-01-17T15:00:50.266Z,21.35
2023-01-17T15:03:20.781Z,17.08
2023-01-17T15:05:53.612Z,19.42
2023-01-17T15:08:30.905Z,24.30
2023-01-17T15:11:09.652Z,26.70
2023-01-17T15:13:45.312Z,31.30
2023-01-17T15:16:26.078Z,25.63
2023-01-17T15:18:57.526Z,22.48
2023-01-17T15:21:32.221Z,24.50
2023-01-17T15:24:08.493Z,14.75
2023-01-17T15:26:45.208Z,21.60
2023-01-17T15:29:33.561Z,16.52
2023-01-17T15:32:08.005Z,15.68
2023-01-17T15:34:44.301Z,19.73
2023-01-17T15:37:30.017Z,12.73
2023-01-17T15:40:18.836Z,16.90
2023-01-17T15:42:59.030Z,15.52
2023-01-17T15:45:31.503Z,13.18
2023-01-17T15:48:39.539Z,11.82
2023-01-17T15:51:12.095Z,18.80
2023-01-17T15:53:42.941Z,23.15
2023-01-17T15:56:31.918Z,15.45
2023-01-17T15:59:22.777Z,16.63
2023-01-17T16:01:57.383Z,16.48
2023-01-17T16:04:38.017Z,14.38
2023-01-17T16:07:20.685Z,11.73
2023-01-17T16:09:51.074Z,12.18
2023-01-17T16:12:21.463Z,14.35
2023-01-17T16:15:10.871Z,21.35
2023-01-17T16:17:46.897Z,25.52
2023-01-17T16:20:43.381Z,17.58
2023-01-17T16:23:13.952Z,17.80
2023-01-17T16:25:44.825Z,15.45
2023-01-17T16:28:15.384Z,13.55
2023-01-17T16:30:48.737Z,13.95
2023-01-17T16:33:19.147Z,15.25
2023-01-17T16:35:51.435Z,16.33
2023-01-17T16:38:22.080Z,16.33
2023-01-17T16:40:54.800Z,20.30
2023-01-17T16:43:25.172Z,12.48
2023-01-17T16:45:56.142Z,17.13
2023-01-17T16:48:26.402Z,15.38
2023-01-17T16:50:56.579Z,18.77
2023-01-17T16:53:28.727Z,18.33
2023-01-17T16:56:19.180Z,19.17
2023-01-17T16:58:56.903Z,19.85
2023-01-17T17:01:36.884Z,14.77
2023-01-17T17:06:47.681Z,14.85
2023-01-17T17:09:18.770Z,12.32
2023-01-17T17:11:48.839Z,14.23
2023-01-17T17:14:19.021Z,19.40
2023-01-17T17:16:52.065Z,18.27
2023-01-17T17:19:22.954Z,15.52
2023-01-17T17:21:53.186Z,19.45
2023-01-17T17:24:23.488Z,18.85
2023-01-17T17:26:53.570Z,25.70
2023-01-17T17:29:23.745Z,22.70
2023-01-17T17:31:54.132Z,15.25
2023-01-17T17:34:26.526Z,11.75
2023-01-17T17:36:56.651Z,16.80
2023-01-17T17:39:26.862Z,9.55
2023-01-17T17:42:00.178Z,7.80
2023-01-17T17:44:30.630Z,19.98
2023-01-17T17:47:01.159Z,58.25
2023-01-17T17:49:31.557Z,19.75
2023-01-17T17:52:08.846Z,14.75
2023-01-17T17:54:39.170Z,10.50
2023-01-17T17:57:09.961Z,8.63
2023-01-17T17:59:40.212Z,8.45
2023-01-17T18:02:11.430Z,15.20
2023-01-17T18:04:41.724Z,13.65
2023-01-17T18:18:02.089Z,9.43
2023-01-17T18:20:32.590Z,8.23
2023-01-17T18:23:02.772Z,9.50
2023-01-17T18:25:36.438Z,16.38
2023-01-17T18:28:06.667Z,20.30
2023-01-17T18:30:38.679Z,17.20
2023-01-17T18:33:19.040Z,19.33
2023-01-17T18:35:57.870Z,20.38
2023-01-17T18:38:45.257Z,13.40
2023-01-17T18:41:21.303Z,20.73
2023-01-17T18:44:05.695Z,15.83
2023-01-17T18:46:37.126Z,16.55
2023-01-17T18:49:07.733Z,25.15
2023-01-17T18:51:38.044Z,13.88
2023-01-17T18:54:09.080Z,15.00
2023-01-17T18:57:02.481Z,19.00
2023-01-17T18:59:32.610Z,13.50
2023-01-17T19:02:05.842Z,11.48
2023-01-17T19:04:38.036Z,13.90
2023-01-17T19:07:12.570Z,15.85
2023-01-17T19:09:49.891Z,11.13
2023-01-17T19:12:21.085Z,8.10
2023-01-17T19:14:53.019Z,5.35
2023-01-17T19:17:23.273Z,5.82
2023-01-17T19:19:54.161Z,7.13
2023-01-17T19:22:25.027Z,13.02
2023-01-17T19:24:55.338Z,6.40
2023-01-17T19:27:26.249Z,5.47
2023-01-17T19:29:56.382Z,5.82
2023-01-17T19:32:26.462Z,9.18
2023-01-17T19:34:57.067Z,5.00
2023-01-17T19:37:28.192Z,9.57
2023-01-17T19:39:58.399Z,8.85
2023-01-17T19:42:28.897Z,9.35
2023-01-17T19:45:03.296Z,8.02
2023-01-17T19:47:38.309Z,10.85
2023-01-17T19:50:09.891Z,13.57
2023-01-17T19:52:40.089Z,8.98
2023-01-17T19:55:10.370Z,15.43
2023-01-17T19:57:40.671Z,10.48
2023-01-17T20:00:13.308Z,11.27
2023-01-17T20:02:43.535Z,12.70
2023-01-17T20:05:13.647Z,8.90
2023-01-17T20:07:43.886Z,13.00
2023-01-17T20:10:14.094Z,18.95
2023-01-17T20:12:44.308Z,34.15
2023-01-17T20:15:14.473Z,27.13
2023-01-17T20:17:44.726Z,38.78
2023-01-17T20:20:15.925Z,31.75
2023-01-17T20:22:46.485Z,27.63
2023-01-17T20:25:16.730Z,18.67
2023-01-17T20:27:46.877Z,21.60
2023-01-17T20:30:24.651Z,29.48
2023-01-17T20:32:55.766Z,27.00
2023-01-17T20:35:26.122Z,35.30
2023-01-17T20:37:56.483Z,23.05
2023-01-17T20:40:29.724Z,21.60
2023-01-17T20:43:05.244Z,31.23
2023-01-17T20:45:41.157Z,26.33
2023-01-17T20:48:14.275Z,23.52
2023-01-17T20:51:13.550Z,24.67
2023-01-17T20:53:48.290Z,19.45
2023-01-17T20:56:42.676Z,36.58
2023-01-17T20:59:15.921Z,35.15
2023-01-17T21:01:46.561Z,20.15
2023-01-17T21:04:18.173Z,33.50
2023-01-17T21:06:51.757Z,29.88
2023-01-17T21:09:31.699Z,27.95
2023-01-17T21:12:04.957Z,37.28
2023-01-17T21:14:41.730Z,24.42
2023-01-17T21:17:11.898Z,34.65
2023-01-17T21:19:43.117Z,32.08
2023-01-17T21:22:16.762Z,35.50
2023-01-17T21:24:46.984Z,15.95
2023-01-17T21:27:17.216Z,25.83
2023-01-17T21:29:47.504Z,21.75
2023-01-17T21:32:34.708Z,21.08
2023-01-17T21:35:08.012Z,43.03
2023-01-17T21:37:45.087Z,43.85
2023-01-17T21:43:00.239Z,29.17
2023-01-17T21:49:21.625Z,20.08
2023-01-17T21:52:16.088Z,28.92
2023-01-17T21:55:10.714Z,40.00
2023-01-17T21:57:59.644Z,48.10
2023-01-17T22:00:29.978Z,37.35
2023-01-17T22:03:00.254Z,44.97
2023-01-17T22:05:30.461Z,56.20
2023-01-17T22:08:12.885Z,74.10
2023-01-17T22:10:45.898Z,36.05
2023-01-17T22:13:18.428Z,60.72
2023-01-17T22:15:58.739Z,47.85
2023-01-17T22:18:29.889Z,30.10
2023-01-17T22:21:04.551Z,24.15
2023-01-17T22:23:35.489Z,27.17
2023-01-17T22:26:07.709Z,31.13
2023-01-17T22:28:39.690Z,43.05
2023-01-17T22:31:14.517Z,29.67
2023-01-17T22:33:46.737Z,30.88
2023-01-17T22:36:16.988Z,24.55
2023-01-17T22:38:47.492Z,35.80
2023-01-17T22:41:23.287Z,30.20
2023-01-17T22:44:02.592Z,30.60
2023-01-17T22:46:35.743Z,27.80
2023-01-17T22:49:08.688Z,27.73
2023-01-17T22:51:42.915Z,28.55
2023-01-17T22:54:13.077Z,20.38
2023-01-17T22:56:43.237Z,18.80
2023-01-17T22:59:13.673Z,16.23
2023-01-17T23:01:43.887Z,17.13
2023-01-17T23:04:16.208Z,22.67
2023-01-17T23:06:46.348Z,17.85
2023-01-17T23:09:17.459Z,21.60
2023-01-17T23:11:52.744Z,41.35
2023-01-17T23:14:54.019Z,48.05
2023-01-17T23:17:43.088Z,51.03
2023-01-17T23:20:14.204Z,65.13
2023-01-17T23:22:44.613Z,58.17
2023-01-17T23:25:14.793Z,44.47
2023-01-17T23:28:05.984Z,38.05
2023-01-17T23:30:40.390Z,32.00
2023-01-17T23:33:13.417Z,25.90
2023-01-17T23:35:45.715Z,33.83
2023-01-17T23:38:28.736Z,26.23
2023-01-17T23:41:25.457Z,36.25
2023-01-17T23:46:27.604Z,25.27
2023-01-17T23:48:57.788Z,64.85
2023-01-17T23:51:29.932Z,53.92
2023-01-17T23:54:05.528Z,36.67
2023-01-17T23:56:35.870Z,33.33
2023-01-17T23:59:06.341Z,29.60
